sensor_id;sensor_type;location;lat;lon;timestamp;temperature;humidity
16437;DHT22;8328;52.206;21.006;2022-12-16T00:00:04;-1.20;99.90
16437;DHT22;8328;52.206;21.006;2022-12-16T00:02:31;-1.30;99.90
16437;DHT22;8328;52.206;21.006;2022-12-16T00:04:57;-1.30;99.90
16437;DHT22;8328;52.206;21.006;2022-12-16T00:07:23;-1.30;99.90
16437;DHT22;8328;52.206;21.006;2022-12-16T00:09:49;-1.40;99.90
16437;DHT22;8328;52.206;21.006;2022-12-16T00:12:15;-1.30;99.90
16437;DHT22;8328;52.206;21.006;2022-12-16T00:14:40;-1.30;99.90
16437;DHT22;8328;52.206;21.006;2022-12-16T00:17:06;-1.40;99.90
16437;DHT22;8328;52.206;21.006;2022-12-16T00:19:32;-1.40;99.90
16437;DHT22;8328;52.206;21.006;2022-12-16T00:21:58;-1.40;99.90
16437;DHT22;8328;52.206;21.006;2022-12-16T00:24:23;-1.40;99.90
16437;DHT22;8328;52.206;21.006;2022-12-16T00:29:15;-1.40;99.90
16437;DHT22;8328;52.206;21.006;2022-12-16T00:31:42;-1.40;99.90
16437;DHT22;8328;52.206;21.006;2022-12-16T00:34:15;-1.60;99.90
16437;DHT22;8328;52.206;21.006;2022-12-16T00:36:42;-1.50;99.90
16437;DHT22;8328;52.206;21.006;2022-12-16T00:39:09;-1.50;99.90
16437;DHT22;8328;52.206;21.006;2022-12-16T00:41:35;-1.50;99.90
16437;DHT22;8328;52.206;21.006;2022-12-16T00:44:01;-1.60;99.90
16437;DHT22;8328;52.206;21.006;2022-12-16T00:48:52;-1.80;99.90
16437;DHT22;8328;52.206;21.006;2022-12-16T00:51:19;-1.80;99.90
16437;DHT22;8328;52.206;21.006;2022-12-16T00:53:45;-1.80;99.90
16437;DHT22;8328;52.206;21.006;2022-12-16T00:56:12;-1.80;99.90
16437;DHT22;8328;52.206;21.006;2022-12-16T00:58:42;-1.90;99.90
16437;DHT22;8328;52.206;21.006;2022-12-16T01:01:09;-1.80;99.90
16437;DHT22;8328;52.206;21.006;2022-12-16T01:03:35;-1.80;99.90
16437;DHT22;8328;52.206;21.006;2022-12-16T01:06:06;-1.90;99.90
16437;DHT22;8328;52.206;21.006;2022-12-16T01:08:32;-1.80;99.90
16437;DHT22;8328;52.206;21.006;2022-12-16T01:10:58;-1.80;99.90
16437;DHT22;8328;52.206;21.006;2022-12-16T01:13:25;-1.80;99.90
16437;DHT22;8328;52.206;21.006;2022-12-16T01:15:51;-1.70;99.90
16437;DHT22;8328;52.206;21.006;2022-12-16T01:18:17;-1.80;99.90
16437;DHT22;8328;52.206;21.006;2022-12-16T01:20:43;-1.80;99.90
16437;DHT22;8328;52.206;21.006;2022-12-16T01:28:01;-1.80;99.90
16437;DHT22;8328;52.206;21.006;2022-12-16T01:32:53;-1.80;99.90
16437;DHT22;8328;52.206;21.006;2022-12-16T01:35:19;-1.80;99.90
16437;DHT22;8328;52.206;21.006;2022-12-16T01:37:45;-1.80;99.90
16437;DHT22;8328;52.206;21.006;2022-12-16T01:40:17;-1.70;99.90
16437;DHT22;8328;52.206;21.006;2022-12-16T01:42:44;-1.70;99.90
16437;DHT22;8328;52.206;21.006;2022-12-16T01:47:55;-1.70;99.90
16437;DHT22;8328;52.206;21.006;2022-12-16T01:50:22;-1.70;99.90
16437;DHT22;8328;52.206;21.006;2022-12-16T01:52:52;-1.70;99.90
16437;DHT22;8328;52.206;21.006;2022-12-16T01:55:38;-1.70;99.90
16437;DHT22;8328;52.206;21.006;2022-12-16T01:58:10;-1.80;99.90
16437;DHT22;8328;52.206;21.006;2022-12-16T02:00:37;-1.80;99.90
16437;DHT22;8328;52.206;21.006;2022-12-16T02:03:05;-1.80;99.90
16437;DHT22;8328;52.206;21.006;2022-12-16T02:05:33;-1.80;99.90
16437;DHT22;8328;52.206;21.006;2022-12-16T02:08:13;-1.80;99.90
16437;DHT22;8328;52.206;21.006;2022-12-16T02:30:04;-1.90;99.90
16437;DHT22;8328;52.206;21.006;2022-12-16T02:32:40;-1.90;99.90
16437;DHT22;8328;52.206;21.006;2022-12-16T02:35:09;-1.90;99.90
16437;DHT22;8328;52.206;21.006;2022-12-16T02:37:51;-1.80;99.90
16437;DHT22;8328;52.206;21.006;2022-12-16T02:42:50;-1.90;99.90
16437;DHT22;8328;52.206;21.006;2022-12-16T02:45:23;-1.80;99.90
16437;DHT22;8328;52.206;21.006;2022-12-16T02:47:50;-1.90;99.90
16437;DHT22;8328;52.206;21.006;2022-12-16T02:50:35;-2.00;99.90
16437;DHT22;8328;52.206;21.006;2022-12-16T02:53:03;-2.00;99.90
16437;DHT22;8328;52.206;21.006;2022-12-16T02:58:21;-2.00;99.90
16437;DHT22;8328;52.206;21.006;2022-12-16T03:01:04;-2.10;99.90
16437;DHT22;8328;52.206;21.006;2022-12-16T03:06:21;-2.30;99.90
16437;DHT22;8328;52.206;21.006;2022-12-16T03:08:52;-2.20;99.90
16437;DHT22;8328;52.206;21.006;2022-12-16T03:11:19;-2.20;99.90
16437;DHT22;8328;52.206;21.006;2022-12-16T03:13:49;-2.10;99.90
16437;DHT22;8328;52.206;21.006;2022-12-16T03:16:17;-2.10;99.90
16437;DHT22;8328;52.206;21.006;2022-12-16T03:18:48;-2.00;99.90
16437;DHT22;8328;52.206;21.006;2022-12-16T03:21:16;-2.00;99.90
16437;DHT22;8328;52.206;21.006;2022-12-16T03:23:53;-2.00;99.90
16437;DHT22;8328;52.206;21.006;2022-12-16T03:26:26;-2.00;99.90
16437;DHT22;8328;52.206;21.006;2022-12-16T03:28:54;-2.00;99.90
16437;DHT22;8328;52.206;21.006;2022-12-16T03:31:42;-2.00;99.90
16437;DHT22;8328;52.206;21.006;2022-12-16T03:37:02;-1.80;99.90
16437;DHT22;8328;52.206;21.006;2022-12-16T03:39:32;-1.80;99.90
16437;DHT22;8328;52.206;21.006;2022-12-16T03:42:00;-1.80;99.90
16437;DHT22;8328;52.206;21.006;2022-12-16T03:44:27;-1.80;99.90
16437;DHT22;8328;52.206;21.006;2022-12-16T03:46:53;-1.80;99.90
16437;DHT22;8328;52.206;21.006;2022-12-16T03:49:21;-1.90;99.90
16437;DHT22;8328;52.206;21.006;2022-12-16T03:51:47;-2.00;99.90
16437;DHT22;8328;52.206;21.006;2022-12-16T03:54:13;-2.10;99.90
16437;DHT22;8328;52.206;21.006;2022-12-16T03:56:38;-2.00;99.90
16437;DHT22;8328;52.206;21.006;2022-12-16T03:59:04;-2.00;99.90
16437;DHT22;8328;52.206;21.006;2022-12-16T04:01:30;-2.10;99.90
16437;DHT22;8328;52.206;21.006;2022-12-16T04:03:56;-2.00;99.90
16437;DHT22;8328;52.206;21.006;2022-12-16T04:06:21;-1.90;99.90
16437;DHT22;8328;52.206;21.006;2022-12-16T04:08:47;-1.90;99.90
16437;DHT22;8328;52.206;21.006;2022-12-16T04:11:14;-1.90;99.90
16437;DHT22;8328;52.206;21.006;2022-12-16T04:13:59;-2.00;99.90
16437;DHT22;8328;52.206;21.006;2022-12-16T04:16:43;-2.00;99.90
16437;DHT22;8328;52.206;21.006;2022-12-16T04:19:31;-1.90;99.90
16437;DHT22;8328;52.206;21.006;2022-12-16T04:22:22;-2.00;99.90
16437;DHT22;8328;52.206;21.006;2022-12-16T04:25:11;-2.00;99.90
16437;DHT22;8328;52.206;21.006;2022-12-16T04:27:38;-2.10;99.90
16437;DHT22;8328;52.206;21.006;2022-12-16T04:30:05;-2.10;99.90
16437;DHT22;8328;52.206;21.006;2022-12-16T04:35:39;-2.10;99.90
16437;DHT22;8328;52.206;21.006;2022-12-16T04:38:24;-2.10;99.90
16437;DHT22;8328;52.206;21.006;2022-12-16T04:41:09;-2.10;99.90
16437;DHT22;8328;52.206;21.006;2022-12-16T04:43:53;-1.90;99.90
16437;DHT22;8328;52.206;21.006;2022-12-16T04:46:37;-1.90;99.90
16437;DHT22;8328;52.206;21.006;2022-12-16T04:49:21;-1.80;99.90
16437;DHT22;8328;52.206;21.006;2022-12-16T04:52:05;-1.90;99.90
16437;DHT22;8328;52.206;21.006;2022-12-16T04:54:49;-2.00;99.90
16437;DHT22;8328;52.206;21.006;2022-12-16T05:00:18;-1.90;99.90
16437;DHT22;8328;52.206;21.006;2022-12-16T05:03:03;-1.80;99.90
16437;DHT22;8328;52.206;21.006;2022-12-16T05:05:47;-1.90;99.90
16437;DHT22;8328;52.206;21.006;2022-12-16T05:08:39;-1.90;99.90
16437;DHT22;8328;52.206;21.006;2022-12-16T05:11:23;-1.90;99.90
16437;DHT22;8328;52.206;21.006;2022-12-16T05:14:07;-1.90;99.90
16437;DHT22;8328;52.206;21.006;2022-12-16T05:16:52;-1.90;99.90
16437;DHT22;8328;52.206;21.006;2022-12-16T05:19:36;-1.90;99.90
16437;DHT22;8328;52.206;21.006;2022-12-16T05:22:20;-2.00;99.90
16437;DHT22;8328;52.206;21.006;2022-12-16T05:25:04;-2.00;99.90
16437;DHT22;8328;52.206;21.006;2022-12-16T05:27:50;-2.00;99.90
16437;DHT22;8328;52.206;21.006;2022-12-16T05:30:35;-2.00;99.90
16437;DHT22;8328;52.206;21.006;2022-12-16T05:33:19;-1.90;99.90
16437;DHT22;8328;52.206;21.006;2022-12-16T05:36:04;-1.90;99.90
16437;DHT22;8328;52.206;21.006;2022-12-16T05:38:48;-2.00;99.90
16437;DHT22;8328;52.206;21.006;2022-12-16T05:41:33;-2.00;99.90
16437;DHT22;8328;52.206;21.006;2022-12-16T05:44:17;-1.80;99.90
16437;DHT22;8328;52.206;21.006;2022-12-16T05:47:01;-1.70;99.90
16437;DHT22;8328;52.206;21.006;2022-12-16T05:49:45;-1.70;99.90
16437;DHT22;8328;52.206;21.006;2022-12-16T05:52:29;-1.60;99.90
16437;DHT22;8328;52.206;21.006;2022-12-16T05:55:13;-1.60;99.90
16437;DHT22;8328;52.206;21.006;2022-12-16T05:57:58;-1.50;99.90
16437;DHT22;8328;52.206;21.006;2022-12-16T06:00:42;-1.50;99.90
16437;DHT22;8328;52.206;21.006;2022-12-16T06:03:26;-1.70;99.90
16437;DHT22;8328;52.206;21.006;2022-12-16T06:06:10;-1.70;99.90
16437;DHT22;8328;52.206;21.006;2022-12-16T06:08:54;-1.80;99.90
16437;DHT22;8328;52.206;21.006;2022-12-16T06:11:38;-1.80;99.90
16437;DHT22;8328;52.206;21.006;2022-12-16T06:14:22;-1.70;99.90
16437;DHT22;8328;52.206;21.006;2022-12-16T06:17:06;-1.60;99.90
16437;DHT22;8328;52.206;21.006;2022-12-16T06:19:50;-1.80;99.90
16437;DHT22;8328;52.206;21.006;2022-12-16T06:22:34;-1.90;99.90
16437;DHT22;8328;52.206;21.006;2022-12-16T06:25:19;-1.90;99.90
16437;DHT22;8328;52.206;21.006;2022-12-16T06:28:03;-1.70;99.90
16437;DHT22;8328;52.206;21.006;2022-12-16T06:30:48;-1.40;99.90
16437;DHT22;8328;52.206;21.006;2022-12-16T06:33:32;-1.50;99.90
16437;DHT22;8328;52.206;21.006;2022-12-16T06:36:16;-1.40;99.90
16437;DHT22;8328;52.206;21.006;2022-12-16T06:39:00;-1.10;99.90
16437;DHT22;8328;52.206;21.006;2022-12-16T06:41:45;-1.10;99.90
16437;DHT22;8328;52.206;21.006;2022-12-16T06:47:13;-1.20;99.90
16437;DHT22;8328;52.206;21.006;2022-12-16T06:49:57;-1.10;99.90
16437;DHT22;8328;52.206;21.006;2022-12-16T06:52:42;-0.90;99.90
16437;DHT22;8328;52.206;21.006;2022-12-16T06:55:26;-0.70;99.90
16437;DHT22;8328;52.206;21.006;2022-12-16T07:09:09;-1.60;99.90
16437;DHT22;8328;52.206;21.006;2022-12-16T07:11:53;-1.60;99.90
16437;DHT22;8328;52.206;21.006;2022-12-16T07:14:37;-1.80;99.90
16437;DHT22;8328;52.206;21.006;2022-12-16T07:17:21;-1.80;99.90
16437;DHT22;8328;52.206;21.006;2022-12-16T07:20:06;-1.80;99.90
16437;DHT22;8328;52.206;21.006;2022-12-16T07:22:51;-1.90;99.90
16437;DHT22;8328;52.206;21.006;2022-12-16T07:25:35;-1.90;99.90
16437;DHT22;8328;52.206;21.006;2022-12-16T07:28:19;-2.00;99.90
16437;DHT22;8328;52.206;21.006;2022-12-16T07:31:03;-2.00;99.90
16437;DHT22;8328;52.206;21.006;2022-12-16T07:33:47;-2.10;99.90
16437;DHT22;8328;52.206;21.006;2022-12-16T07:36:31;-2.10;99.90
16437;DHT22;8328;52.206;21.006;2022-12-16T07:39:15;-2.10;99.90
16437;DHT22;8328;52.206;21.006;2022-12-16T07:41:59;-1.10;99.90
16437;DHT22;8328;52.206;21.006;2022-12-16T07:44:43;-2.10;99.90
16437;DHT22;8328;52.206;21.006;2022-12-16T07:47:27;-2.10;99.90
16437;DHT22;8328;52.206;21.006;2022-12-16T07:50:12;-2.10;99.90
16437;DHT22;8328;52.206;21.006;2022-12-16T07:52:57;-2.10;99.90
16437;DHT22;8328;52.206;21.006;2022-12-16T07:55:42;-2.20;99.90
16437;DHT22;8328;52.206;21.006;2022-12-16T07:58:27;-2.10;99.90
16437;DHT22;8328;52.206;21.006;2022-12-16T08:01:12;-2.20;99.90
16437;DHT22;8328;52.206;21.006;2022-12-16T08:03:56;-2.20;99.90
16437;DHT22;8328;52.206;21.006;2022-12-16T08:06:40;-2.10;99.90
16437;DHT22;8328;52.206;21.006;2022-12-16T08:09:24;-2.10;99.90
16437;DHT22;8328;52.206;21.006;2022-12-16T08:12:08;-2.10;99.90
16437;DHT22;8328;52.206;21.006;2022-12-16T08:14:52;-1.90;99.90
16437;DHT22;8328;52.206;21.006;2022-12-16T08:17:36;-1.80;99.90
16437;DHT22;8328;52.206;21.006;2022-12-16T08:20:21;-1.80;99.90
16437;DHT22;8328;52.206;21.006;2022-12-16T08:23:05;-1.80;99.90
16437;DHT22;8328;52.206;21.006;2022-12-16T08:28:34;-1.80;99.90
16437;DHT22;8328;52.206;21.006;2022-12-16T08:31:18;-1.70;99.90
16437;DHT22;8328;52.206;21.006;2022-12-16T08:34:02;-1.50;99.90
16437;DHT22;8328;52.206;21.006;2022-12-16T08:39:31;-1.50;99.90
16437;DHT22;8328;52.206;21.006;2022-12-16T08:53:14;-1.70;99.90
16437;DHT22;8328;52.206;21.006;2022-12-16T08:55:58;-1.60;99.90
16437;DHT22;8328;52.206;21.006;2022-12-16T09:01:27;-1.40;99.90
16437;DHT22;8328;52.206;21.006;2022-12-16T09:04:11;-1.50;99.90
16437;DHT22;8328;52.206;21.006;2022-12-16T09:15:09;-1.30;99.90
16437;DHT22;8328;52.206;21.006;2022-12-16T09:17:54;-1.20;99.90
16437;DHT22;8328;52.206;21.006;2022-12-16T09:20:39;-1.10;99.90
16437;DHT22;8328;52.206;21.006;2022-12-16T09:23:24;-1.10;99.90
16437;DHT22;8328;52.206;21.006;2022-12-16T09:26:08;-1.10;99.90
16437;DHT22;8328;52.206;21.006;2022-12-16T09:34:21;-1.20;99.90
16437;DHT22;8328;52.206;21.006;2022-12-16T09:45:33;-0.80;99.90
16437;DHT22;8328;52.206;21.006;2022-12-16T09:51:36;-0.70;99.90
16437;DHT22;8328;52.206;21.006;2022-12-16T09:54:25;-0.60;99.90
16437;DHT22;8328;52.206;21.006;2022-12-16T09:57:11;-0.50;99.90
16437;DHT22;8328;52.206;21.006;2022-12-16T10:00:19;-0.50;99.90
16437;DHT22;8328;52.206;21.006;2022-12-16T10:03:14;-0.30;99.90
16437;DHT22;8328;52.206;21.006;2022-12-16T10:09:00;0.20;99.90
16437;DHT22;8328;52.206;21.006;2022-12-16T10:12:16;0.20;99.90
16437;DHT22;8328;52.206;21.006;2022-12-16T10:15:24;0.30;99.90
16437;DHT22;8328;52.206;21.006;2022-12-16T10:18:52;0.40;99.90
16437;DHT22;8328;52.206;21.006;2022-12-16T10:24:59;0.20;99.90
16437;DHT22;8328;52.206;21.006;2022-12-16T10:27:48;-0.10;99.90
16437;DHT22;8328;52.206;21.006;2022-12-16T10:30:36;-0.30;99.90
16437;DHT22;8328;52.206;21.006;2022-12-16T10:33:24;-0.30;99.90
16437;DHT22;8328;52.206;21.006;2022-12-16T10:36:20;-0.30;99.90
16437;DHT22;8328;52.206;21.006;2022-12-16T10:39:39;-0.40;99.90
16437;DHT22;8328;52.206;21.006;2022-12-16T10:42:31;-0.30;99.90
16437;DHT22;8328;52.206;21.006;2022-12-16T10:45:23;-0.10;99.90
16437;DHT22;8328;52.206;21.006;2022-12-16T10:48:09;0.00;99.90
16437;DHT22;8328;52.206;21.006;2022-12-16T10:50:54;-0.20;99.90
16437;DHT22;8328;52.206;21.006;2022-12-16T10:53:38;-0.30;99.90
16437;DHT22;8328;52.206;21.006;2022-12-16T10:59:37;-0.50;99.90
16437;DHT22;8328;52.206;21.006;2022-12-16T11:02:27;-0.40;99.90
16437;DHT22;8328;52.206;21.006;2022-12-16T11:05:32;-0.50;99.90
16437;DHT22;8328;52.206;21.006;2022-12-16T11:11:27;-0.60;99.90
16437;DHT22;8328;52.206;21.006;2022-12-16T11:17:19;-0.50;99.90
16437;DHT22;8328;52.206;21.006;2022-12-16T11:20:19;-0.40;99.90
16437;DHT22;8328;52.206;21.006;2022-12-16T11:26:13;-0.10;99.90
16437;DHT22;8328;52.206;21.006;2022-12-16T11:29:15;-0.20;99.90
16437;DHT22;8328;52.206;21.006;2022-12-16T11:34:55;-0.10;99.90
16437;DHT22;8328;52.206;21.006;2022-12-16T11:37:42;-0.10;99.90
16437;DHT22;8328;52.206;21.006;2022-12-16T11:40:28;-0.10;99.90
16437;DHT22;8328;52.206;21.006;2022-12-16T11:43:14;-0.10;99.90
16437;DHT22;8328;52.206;21.006;2022-12-16T11:46:02;-0.30;99.90
16437;DHT22;8328;52.206;21.006;2022-12-16T11:48:58;-0.20;99.90
16437;DHT22;8328;52.206;21.006;2022-12-16T11:51:50;-0.20;99.90
16437;DHT22;8328;52.206;21.006;2022-12-16T11:54:39;-0.20;99.90
16437;DHT22;8328;52.206;21.006;2022-12-16T11:57:59;0.10;99.90
16437;DHT22;8328;52.206;21.006;2022-12-16T12:01:16;0.10;99.90
16437;DHT22;8328;52.206;21.006;2022-12-16T12:03:56;0.10;99.90
16437;DHT22;8328;52.206;21.006;2022-12-16T12:22:37;-0.20;99.90
16437;DHT22;8328;52.206;21.006;2022-12-16T12:25:48;-0.20;99.90
16437;DHT22;8328;52.206;21.006;2022-12-16T12:34:52;0.00;99.90
16437;DHT22;8328;52.206;21.006;2022-12-16T12:37:47;0.10;99.90
16437;DHT22;8328;52.206;21.006;2022-12-16T12:40:52;0.10;99.90
16437;DHT22;8328;52.206;21.006;2022-12-16T12:46:42;0.00;99.90
16437;DHT22;8328;52.206;21.006;2022-12-16T12:50:38;-0.10;99.90
16437;DHT22;8328;52.206;21.006;2022-12-16T12:59:22;-0.30;99.90
16437;DHT22;8328;52.206;21.006;2022-12-16T13:02:14;-0.30;99.90
16437;DHT22;8328;52.206;21.006;2022-12-16T13:07:45;-0.50;99.90
16437;DHT22;8328;52.206;21.006;2022-12-16T13:10:35;-0.50;99.90
16437;DHT22;8328;52.206;21.006;2022-12-16T13:22:35;-0.60;99.90
16437;DHT22;8328;52.206;21.006;2022-12-16T13:25:37;-0.60;99.90
16437;DHT22;8328;52.206;21.006;2022-12-16T13:28:28;-0.50;99.90
16437;DHT22;8328;52.206;21.006;2022-12-16T13:36:57;-0.70;99.90
16437;DHT22;8328;52.206;21.006;2022-12-16T13:39:43;-0.80;99.90
16437;DHT22;8328;52.206;21.006;2022-12-16T13:42:48;-0.90;99.90
16437;DHT22;8328;52.206;21.006;2022-12-16T13:45:43;-1.10;99.90
16437;DHT22;8328;52.206;21.006;2022-12-16T13:48:47;-1.20;99.90
16437;DHT22;8328;52.206;21.006;2022-12-16T13:54:43;-1.10;99.90
16437;DHT22;8328;52.206;21.006;2022-12-16T13:57:29;-1.10;99.90
16437;DHT22;8328;52.206;21.006;2022-12-16T14:00:21;-1.20;99.90
16437;DHT22;8328;52.206;21.006;2022-12-16T14:03:35;-1.30;99.90
16437;DHT22;8328;52.206;21.006;2022-12-16T14:06:24;-1.20;99.90
16437;DHT22;8328;52.206;21.006;2022-12-16T14:09:33;-1.30;99.90
16437;DHT22;8328;52.206;21.006;2022-12-16T14:12:43;-1.20;99.90
16437;DHT22;8328;52.206;21.006;2022-12-16T14:21:20;-1.40;99.90
16437;DHT22;8328;52.206;21.006;2022-12-16T14:24:16;-1.40;99.90
16437;DHT22;8328;52.206;21.006;2022-12-16T14:27:16;-1.40;99.90
16437;DHT22;8328;52.206;21.006;2022-12-16T14:30:10;-1.30;99.90
16437;DHT22;8328;52.206;21.006;2022-12-16T14:32:57;-1.30;99.90
16437;DHT22;8328;52.206;21.006;2022-12-16T14:35:48;-1.30;99.90
16437;DHT22;8328;52.206;21.006;2022-12-16T14:38:35;-1.30;99.90
16437;DHT22;8328;52.206;21.006;2022-12-16T14:41:21;-1.30;99.90
16437;DHT22;8328;52.206;21.006;2022-12-16T14:44:22;-1.20;99.90
16437;DHT22;8328;52.206;21.006;2022-12-16T14:47:26;-1.20;99.90
16437;DHT22;8328;52.206;21.006;2022-12-16T14:50:26;-1.20;99.90
16437;DHT22;8328;52.206;21.006;2022-12-16T14:56:17;-1.10;99.90
16437;DHT22;8328;52.206;21.006;2022-12-16T14:59:16;-1.20;99.90
16437;DHT22;8328;52.206;21.006;2022-12-16T15:02:27;-1.30;99.90
16437;DHT22;8328;52.206;21.006;2022-12-16T15:05:14;-1.10;99.90
16437;DHT22;8328;52.206;21.006;2022-12-16T15:07:59;-1.10;99.90
16437;DHT22;8328;52.206;21.006;2022-12-16T15:10:44;-1.20;99.90
16437;DHT22;8328;52.206;21.006;2022-12-16T15:13:29;-1.20;99.90
16437;DHT22;8328;52.206;21.006;2022-12-16T15:16:17;-1.10;99.90
16437;DHT22;8328;52.206;21.006;2022-12-16T15:19:09;-1.10;99.90
16437;DHT22;8328;52.206;21.006;2022-12-16T15:21:59;-1.10;99.90
16437;DHT22;8328;52.206;21.006;2022-12-16T15:24:43;-1.10;99.90
16437;DHT22;8328;52.206;21.006;2022-12-16T15:27:34;-1.10;99.90
16437;DHT22;8328;52.206;21.006;2022-12-16T15:30:44;-1.20;99.90
16437;DHT22;8328;52.206;21.006;2022-12-16T15:33:31;-1.20;99.90
16437;DHT22;8328;52.206;21.006;2022-12-16T15:36:21;-1.40;99.90
16437;DHT22;8328;52.206;21.006;2022-12-16T15:39:24;-1.40;99.90
16437;DHT22;8328;52.206;21.006;2022-12-16T15:42:19;-1.30;99.90
16437;DHT22;8328;52.206;21.006;2022-12-16T15:45:04;-1.30;99.90
16437;DHT22;8328;52.206;21.006;2022-12-16T15:47:49;-1.30;99.90
16437;DHT22;8328;52.206;21.006;2022-12-16T15:50:34;-1.40;99.90
16437;DHT22;8328;52.206;21.006;2022-12-16T15:53:31;-1.40;99.90
16437;DHT22;8328;52.206;21.006;2022-12-16T15:56:25;-1.30;99.90
16437;DHT22;8328;52.206;21.006;2022-12-16T16:02:09;-1.40;99.90
16437;DHT22;8328;52.206;21.006;2022-12-16T16:04:56;-1.60;99.90
16437;DHT22;8328;52.206;21.006;2022-12-16T16:07:40;-1.50;99.90
16437;DHT22;8328;52.206;21.006;2022-12-16T16:10:25;-1.50;99.90
16437;DHT22;8328;52.206;21.006;2022-12-16T16:13:14;-1.50;99.90
16437;DHT22;8328;52.206;21.006;2022-12-16T16:16:10;-1.40;99.90
16437;DHT22;8328;52.206;21.006;2022-12-16T16:18:54;-1.40;99.90
16437;DHT22;8328;52.206;21.006;2022-12-16T16:21:38;-1.40;99.90
16437;DHT22;8328;52.206;21.006;2022-12-16T16:24:23;-1.40;99.90
16437;DHT22;8328;52.206;21.006;2022-12-16T16:27:11;-1.40;99.90
16437;DHT22;8328;52.206;21.006;2022-12-16T16:29:56;-1.50;99.90
16437;DHT22;8328;52.206;21.006;2022-12-16T16:32:41;-1.40;99.90
16437;DHT22;8328;52.206;21.006;2022-12-16T16:35:26;-1.40;99.90
16437;DHT22;8328;52.206;21.006;2022-12-16T16:38:11;-1.40;99.90
16437;DHT22;8328;52.206;21.006;2022-12-16T16:40:55;-1.40;99.90
16437;DHT22;8328;52.206;21.006;2022-12-16T16:43:40;-1.60;99.90
16437;DHT22;8328;52.206;21.006;2022-12-16T16:46:38;-1.50;99.90
16437;DHT22;8328;52.206;21.006;2022-12-16T16:52:13;-1.50;99.90
16437;DHT22;8328;52.206;21.006;2022-12-16T16:54:57;-1.40;99.90
16437;DHT22;8328;52.206;21.006;2022-12-16T16:57:42;-1.30;99.90
16437;DHT22;8328;52.206;21.006;2022-12-16T17:00:26;-1.50;99.90
16437;DHT22;8328;52.206;21.006;2022-12-16T17:03:10;-1.50;99.90
16437;DHT22;8328;52.206;21.006;2022-12-16T17:05:54;-1.40;99.90
16437;DHT22;8328;52.206;21.006;2022-12-16T17:08:40;-1.40;99.90
16437;DHT22;8328;52.206;21.006;2022-12-16T17:11:24;-1.50;99.90
16437;DHT22;8328;52.206;21.006;2022-12-16T17:14:12;-1.60;99.90
16437;DHT22;8328;52.206;21.006;2022-12-16T17:16:57;-1.60;99.90
16437;DHT22;8328;52.206;21.006;2022-12-16T17:19:41;-1.60;99.90
16437;DHT22;8328;52.206;21.006;2022-12-16T17:22:25;-1.60;99.90
16437;DHT22;8328;52.206;21.006;2022-12-16T17:25:09;-1.70;99.90
16437;DHT22;8328;52.206;21.006;2022-12-16T17:27:54;-1.70;99.90
16437;DHT22;8328;52.206;21.006;2022-12-16T17:30:38;-1.70;99.90
16437;DHT22;8328;52.206;21.006;2022-12-16T17:33:22;-1.60;99.90
16437;DHT22;8328;52.206;21.006;2022-12-16T17:36:13;-1.60;99.90
16437;DHT22;8328;52.206;21.006;2022-12-16T17:38:58;-1.60;99.90
16437;DHT22;8328;52.206;21.006;2022-12-16T17:41:43;-1.60;99.90
16437;DHT22;8328;52.206;21.006;2022-12-16T17:44:27;-1.60;99.90
16437;DHT22;8328;52.206;21.006;2022-12-16T17:47:12;-1.50;99.90
16437;DHT22;8328;52.206;21.006;2022-12-16T17:49:59;-1.60;99.90
16437;DHT22;8328;52.206;21.006;2022-12-16T17:52:47;-1.50;99.90
16437;DHT22;8328;52.206;21.006;2022-12-16T17:55:32;-1.60;99.90
16437;DHT22;8328;52.206;21.006;2022-12-16T17:58:17;-1.60;99.90
16437;DHT22;8328;52.206;21.006;2022-12-16T18:01:04;-1.50;99.90
16437;DHT22;8328;52.206;21.006;2022-12-16T18:03:49;-1.60;99.90
16437;DHT22;8328;52.206;21.006;2022-12-16T18:06:34;-1.50;99.90
16437;DHT22;8328;52.206;21.006;2022-12-16T18:09:18;-1.50;99.90
16437;DHT22;8328;52.206;21.006;2022-12-16T18:12:02;0.70;99.90
16437;DHT22;8328;52.206;21.006;2022-12-16T18:14:47;-1.50;99.90
16437;DHT22;8328;52.206;21.006;2022-12-16T18:17:31;-1.50;99.90
16437;DHT22;8328;52.206;21.006;2022-12-16T18:20:15;-2.80;99.90
16437;DHT22;8328;52.206;21.006;2022-12-16T18:23:00;-1.60;99.90
16437;DHT22;8328;52.206;21.006;2022-12-16T18:25:44;-1.50;99.90
16437;DHT22;8328;52.206;21.006;2022-12-16T18:28:36;-1.50;99.90
16437;DHT22;8328;52.206;21.006;2022-12-16T18:31:20;-1.50;99.90
16437;DHT22;8328;52.206;21.006;2022-12-16T18:34:04;-1.50;99.90
16437;DHT22;8328;52.206;21.006;2022-12-16T18:36:48;-1.50;99.90
16437;DHT22;8328;52.206;21.006;2022-12-16T18:39:32;-1.50;99.90
16437;DHT22;8328;52.206;21.006;2022-12-16T18:42:17;-1.50;99.90
16437;DHT22;8328;52.206;21.006;2022-12-16T18:45:01;-1.50;99.90
16437;DHT22;8328;52.206;21.006;2022-12-16T18:47:46;-1.40;99.90
16437;DHT22;8328;52.206;21.006;2022-12-16T18:50:30;-1.30;99.90
16437;DHT22;8328;52.206;21.006;2022-12-16T18:53:14;-1.20;99.90
16437;DHT22;8328;52.206;21.006;2022-12-16T18:56:03;-1.10;99.90
16437;DHT22;8328;52.206;21.006;2022-12-16T18:58:47;-1.20;99.90
16437;DHT22;8328;52.206;21.006;2022-12-16T19:01:32;-1.20;99.90
16437;DHT22;8328;52.206;21.006;2022-12-16T19:04:16;-1.30;99.90
16437;DHT22;8328;52.206;21.006;2022-12-16T19:07:00;-1.20;99.90
16437;DHT22;8328;52.206;21.006;2022-12-16T19:09:44;-1.10;99.90
16437;DHT22;8328;52.206;21.006;2022-12-16T19:12:29;-1.00;99.90
16437;DHT22;8328;52.206;21.006;2022-12-16T19:15:13;-1.10;99.90
16437;DHT22;8328;52.206;21.006;2022-12-16T19:17:57;-1.30;99.90
16437;DHT22;8328;52.206;21.006;2022-12-16T19:20:41;-1.20;99.90
16437;DHT22;8328;52.206;21.006;2022-12-16T19:23:25;-1.20;99.90
16437;DHT22;8328;52.206;21.006;2022-12-16T19:26:09;-1.00;99.90
16437;DHT22;8328;52.206;21.006;2022-12-16T19:28:53;-1.10;99.90
16437;DHT22;8328;52.206;21.006;2022-12-16T19:31:37;-1.20;99.90
16437;DHT22;8328;52.206;21.006;2022-12-16T19:34:22;-1.20;99.90
16437;DHT22;8328;52.206;21.006;2022-12-16T19:37:06;-1.30;99.90
16437;DHT22;8328;52.206;21.006;2022-12-16T19:39:50;-1.30;99.90
16437;DHT22;8328;52.206;21.006;2022-12-16T19:42:35;-1.40;99.90
16437;DHT22;8328;52.206;21.006;2022-12-16T19:45:19;-1.30;99.90
16437;DHT22;8328;52.206;21.006;2022-12-16T19:48:05;-1.30;99.90
16437;DHT22;8328;52.206;21.006;2022-12-16T19:51:01;-1.40;99.90
16437;DHT22;8328;52.206;21.006;2022-12-16T19:53:46;-1.40;99.90
16437;DHT22;8328;52.206;21.006;2022-12-16T19:56:31;-1.40;99.90
16437;DHT22;8328;52.206;21.006;2022-12-16T19:59:16;-1.30;99.90
16437;DHT22;8328;52.206;21.006;2022-12-16T20:02:00;-1.20;99.90
16437;DHT22;8328;52.206;21.006;2022-12-16T20:04:44;-1.10;99.90
16437;DHT22;8328;52.206;21.006;2022-12-16T20:07:29;-1.10;99.90
16437;DHT22;8328;52.206;21.006;2022-12-16T20:10:13;-1.00;99.90
16437;DHT22;8328;52.206;21.006;2022-12-16T20:12:57;-1.00;99.90
16437;DHT22;8328;52.206;21.006;2022-12-16T20:15:41;-0.90;99.90
16437;DHT22;8328;52.206;21.006;2022-12-16T20:18:25;-0.80;99.90
16437;DHT22;8328;52.206;21.006;2022-12-16T20:21:09;-0.80;99.90
16437;DHT22;8328;52.206;21.006;2022-12-16T20:23:54;-0.70;99.90
16437;DHT22;8328;52.206;21.006;2022-12-16T20:26:39;-0.70;99.90
16437;DHT22;8328;52.206;21.006;2022-12-16T20:29:24;-0.70;99.90
16437;DHT22;8328;52.206;21.006;2022-12-16T20:32:08;-0.90;99.90